createdAt,value
2022-10-11T00:02:17.151Z,71.27
2022-10-11T00:04:43.676Z,71.25
2022-10-11T00:07:10.551Z,71.31
2022-10-11T00:09:37.028Z,71.36
2022-10-11T00:12:05.308Z,71.46
2022-10-11T00:14:32.783Z,71.68
2022-10-11T00:16:59.526Z,71.48
2022-10-11T00:19:26.012Z,71.11
2022-10-11T00:21:52.502Z,71.32
2022-10-11T00:24:19.047Z,71.98
2022-10-11T00:26:46.923Z,71.66
2022-10-11T00:29:15.108Z,71.39
2022-10-11T00:31:41.668Z,71.44
2022-10-11T00:34:08.604Z,71.74
2022-10-11T00:36:35.319Z,71.66
2022-10-11T00:39:01.981Z,71.51
2022-10-11T00:41:28.587Z,71.71
2022-10-11T00:44:12.714Z,71.85
2022-10-11T00:46:42.380Z,71.71
2022-10-11T00:49:15.106Z,71.55
2022-10-11T00:51:47.715Z,71.67
2022-10-11T00:54:18.095Z,71.31
2022-10-11T00:56:47.613Z,71.99
2022-10-11T00:59:21.244Z,71.67
2022-10-11T01:01:49.155Z,71.46
2022-10-11T01:04:15.821Z,71.53
2022-10-11T01:06:43.403Z,71.84
2022-10-11T01:09:10.841Z,71.41
2022-10-11T01:11:39.400Z,71.51
2022-10-11T01:14:29.486Z,71.91
2022-10-11T01:17:02.203Z,72.41
2022-10-11T01:19:53.877Z,72.34
2022-10-11T01:22:39.714Z,71.89
2022-10-11T01:25:23.842Z,72.04
2022-10-11T01:28:10.235Z,72.11
2022-10-11T01:30:38.759Z,72.16
2022-10-11T01:33:13.543Z,72.46
2022-10-11T01:35:45.377Z,72.07
2022-10-11T01:38:16.951Z,72.28
2022-10-11T01:40:50.044Z,72.01
2022-10-11T01:43:19.035Z,72.05
2022-10-11T01:45:49.702Z,71.62
2022-10-11T01:48:16.342Z,71.67
2022-10-11T01:50:45.675Z,71.68
2022-10-11T01:53:30.611Z,71.84
2022-10-11T01:56:04.226Z,72.31
2022-10-11T01:58:43.077Z,72.12
2022-10-11T02:01:19.712Z,72.06
2022-10-11T02:03:51.726Z,71.83
2022-10-11T02:06:23.567Z,71.74
2022-10-11T02:08:55.906Z,71.18
2022-10-11T02:11:25.324Z,70.86
2022-10-11T02:13:56.910Z,70.66
2022-10-11T02:16:33.682Z,70.29
2022-10-11T02:19:04.185Z,70.16
2022-10-11T02:21:34.361Z,70.45
2022-10-11T02:24:05.953Z,70.12
2022-10-11T02:26:34.420Z,70.50
2022-10-11T02:29:05.407Z,70.42
2022-10-11T02:31:35.338Z,70.19
2022-10-11T02:34:11.389Z,70.19
2022-10-11T02:36:46.967Z,70.31
2022-10-11T02:39:18.433Z,70.24
2022-10-11T02:41:46.659Z,70.20
2022-10-11T02:44:18.231Z,70.07
2022-10-11T02:46:46.820Z,70.15
2022-10-11T02:49:14.830Z,70.07
2022-10-11T02:51:41.723Z,70.31
2022-10-11T02:54:08.264Z,70.35
2022-10-11T02:56:34.844Z,70.08
2022-10-11T02:59:01.355Z,69.90
2022-10-11T03:01:27.877Z,70.12
2022-10-11T03:03:55.731Z,70.53
2022-10-11T03:06:22.238Z,70.56
2022-10-11T03:08:48.740Z,70.70
2022-10-11T03:11:15.256Z,70.20
2022-10-11T03:13:41.712Z,70.13
2022-10-11T03:16:08.344Z,70.16
2022-10-11T03:18:35.251Z,69.80
2022-10-11T03:21:03.190Z,69.56
2022-10-11T03:23:29.695Z,69.53
2022-10-11T03:25:56.178Z,69.58
2022-10-11T03:28:22.732Z,69.98
2022-10-11T03:30:49.619Z,69.75
2022-10-11T03:33:16.826Z,69.87
2022-10-11T03:35:44.022Z,69.85
2022-10-11T03:38:14.239Z,69.99
2022-10-11T03:40:40.905Z,70.22
2022-10-11T03:43:07.514Z,70.62
2022-10-11T03:45:34.342Z,70.00
2022-10-11T03:48:00.839Z,70.49
2022-10-11T03:50:27.347Z,70.35
2022-10-11T03:52:53.830Z,70.22
2022-10-11T03:55:21.643Z,70.56
2022-10-11T03:57:48.090Z,70.73
2022-10-11T04:00:14.861Z,70.85
2022-10-11T04:02:41.318Z,70.95
2022-10-11T04:05:08.443Z,70.72
2022-10-11T04:07:35.024Z,70.62
2022-10-11T04:10:01.497Z,70.41
2022-10-11T04:12:29.335Z,69.94
2022-10-11T04:14:55.785Z,69.76
2022-10-11T04:17:22.277Z,69.90
2022-10-11T04:19:48.791Z,69.85
2022-10-11T04:22:15.277Z,69.73
2022-10-11T04:24:41.806Z,69.87
2022-10-11T04:27:08.277Z,69.77
2022-10-11T04:29:36.149Z,69.60
2022-10-11T04:32:02.689Z,69.85
2022-10-11T04:34:29.182Z,69.86
2022-10-11T04:36:55.643Z,69.84
2022-10-11T04:39:22.169Z,70.00
2022-10-11T04:41:48.641Z,70.01
2022-10-11T04:44:15.278Z,69.90
2022-10-11T04:46:43.210Z,69.71
2022-10-11T04:49:09.708Z,69.79
2022-10-11T04:51:36.191Z,69.67
2022-10-11T04:54:02.678Z,69.98
2022-10-11T04:56:29.152Z,69.63
2022-10-11T04:58:55.621Z,70.11
2022-10-11T05:01:22.160Z,70.24
2022-10-11T05:03:49.985Z,70.18
2022-10-11T05:06:16.446Z,70.33
2022-10-11T05:08:42.913Z,70.11
2022-10-11T05:11:15.520Z,70.25
2022-10-11T05:13:42.941Z,70.30
2022-10-11T05:16:11.449Z,70.02
2022-10-11T05:18:39.043Z,70.08
2022-10-11T05:21:29.407Z,69.99
2022-10-11T05:23:56.700Z,69.79
2022-10-11T05:26:24.412Z,70.27
2022-10-11T05:28:51.184Z,70.09
2022-10-11T05:31:17.948Z,69.89
2022-10-11T05:33:53.218Z,70.39
2022-10-11T05:36:35.803Z,70.33
2022-10-11T05:43:05.755Z,70.42
2022-10-11T05:49:28.653Z,70.82
2022-10-11T05:52:34.311Z,70.74
2022-10-11T05:55:17.258Z,70.87
2022-10-11T06:01:02.494Z,70.13
2022-10-11T06:03:41.823Z,69.73
2022-10-11T06:06:24.162Z,69.50
2022-10-11T06:09:20.900Z,69.30
2022-10-11T06:12:10.633Z,69.19
2022-10-11T06:14:56.095Z,68.76
2022-10-11T06:17:51.244Z,68.69
2022-10-11T06:26:57.339Z,67.79
2022-10-11T06:29:52.844Z,67.63
2022-10-11T06:33:04.816Z,67.33
2022-10-11T06:35:53.505Z,66.63
2022-10-11T06:39:04.305Z,66.21
2022-10-11T06:41:55.206Z,66.13
2022-10-11T06:44:50.946Z,65.64
2022-10-11T06:51:03.337Z,64.53
2022-10-11T06:53:35.842Z,63.94
2022-10-11T06:56:23.563Z,63.54
2022-10-11T06:59:14.337Z,63.63
2022-10-11T07:02:20.343Z,62.88
2022-10-11T07:05:10.198Z,62.26
2022-10-11T07:07:36.693Z,61.92
2022-10-11T07:10:03.429Z,61.62
2022-10-11T07:12:29.884Z,61.79
2022-10-11T07:14:57.753Z,61.21
2022-10-11T07:17:25.715Z,60.87
2022-10-11T07:19:52.239Z,60.44
2022-10-11T07:22:18.708Z,60.36
2022-10-11T07:24:45.157Z,59.14
2022-10-11T07:27:11.608Z,58.46
2022-10-11T07:29:38.143Z,57.73
2022-10-11T07:32:06.124Z,57.35
2022-10-11T07:34:33.454Z,56.95
2022-10-11T07:37:00.269Z,56.69
2022-10-11T07:39:26.731Z,55.68
2022-10-11T07:41:53.262Z,55.36
2022-10-11T07:44:19.734Z,53.63
2022-10-11T07:46:51.820Z,54.04
2022-10-11T07:49:20.290Z,53.75
2022-10-11T07:51:47.078Z,53.44
2022-10-11T07:54:13.600Z,53.11
2022-10-11T07:56:40.285Z,52.58
2022-10-11T07:59:06.811Z,54.53
2022-10-11T08:01:33.454Z,53.11
2022-10-11T08:04:00.145Z,53.16
2022-10-11T08:06:29.884Z,52.20
2022-10-11T08:08:58.540Z,51.92
2022-10-11T08:11:27.245Z,50.54
2022-10-11T08:13:54.385Z,50.32
2022-10-11T08:16:21.620Z,51.12
2022-10-11T08:18:48.267Z,50.80
2022-10-11T08:21:17.097Z,51.21
2022-10-11T08:23:44.974Z,51.49
2022-10-11T08:26:11.510Z,51.05
2022-10-11T08:28:38.594Z,52.24
2022-10-11T08:31:05.573Z,52.55
2022-10-11T08:33:32.624Z,51.99
2022-10-11T08:36:03.722Z,51.83
2022-10-11T08:38:30.507Z,51.26
2022-10-11T08:40:59.882Z,50.97
2022-10-11T08:43:41.056Z,50.89
2022-10-11T08:46:08.932Z,50.79
2022-10-11T08:48:40.088Z,51.37
2022-10-11T08:51:14.913Z,51.49
2022-10-11T08:53:47.297Z,51.69
2022-10-11T08:56:17.312Z,52.96
2022-10-11T08:58:49.693Z,51.43
2022-10-11T09:01:20.654Z,53.99
2022-10-11T09:03:48.763Z,53.06
2022-10-11T09:06:26.591Z,52.96
2022-10-11T09:09:10.454Z,52.76
2022-10-11T09:11:48.948Z,52.51
2022-10-11T09:14:38.656Z,53.95
2022-10-11T09:17:13.479Z,52.99
2022-10-11T09:20:01.246Z,52.80
2022-10-11T09:22:38.243Z,52.93
2022-10-11T09:25:18.347Z,52.39
2022-10-11T09:28:03.279Z,53.57
2022-10-11T09:30:31.504Z,52.49
2022-10-11T09:33:08.532Z,52.75
2022-10-11T09:35:39.215Z,52.41
2022-10-11T09:38:12.640Z,51.15
2022-10-11T09:40:50.569Z,51.48
2022-10-11T09:43:18.619Z,52.23
2022-10-11T09:45:49.237Z,52.78
2022-10-11T09:48:20.043Z,52.18
2022-10-11T09:50:46.845Z,51.40
2022-10-11T09:53:13.511Z,51.10
2022-10-11T09:55:46.935Z,51.43
2022-10-11T09:58:28.055Z,51.84
2022-10-11T10:01:08.164Z,52.28
2022-10-11T10:03:36.663Z,52.69
2022-10-11T10:06:09.377Z,52.19
2022-10-11T10:08:36.439Z,51.92
2022-10-11T10:11:05.164Z,51.29
2022-10-11T10:13:41.936Z,52.47
2022-10-11T10:16:19.693Z,52.90
2022-10-11T10:18:51.235Z,54.67
2022-10-11T10:21:26.060Z,54.12
2022-10-11T10:23:53.716Z,53.40
2022-10-11T10:26:22.603Z,53.15
2022-10-11T10:29:01.158Z,52.03
2022-10-11T10:31:54.898Z,51.32
2022-10-11T10:34:25.693Z,51.39
2022-10-11T10:36:55.280Z,52.16
2022-10-11T10:39:28.759Z,52.30
2022-10-11T10:41:55.962Z,52.42
2022-10-11T10:44:23.818Z,52.02
2022-10-11T10:47:02.287Z,52.35
2022-10-11T10:49:53.743Z,53.48
2022-10-11T10:52:41.592Z,53.16
2022-10-11T10:55:19.423Z,53.55
2022-10-11T10:57:59.778Z,53.49
2022-10-11T11:00:34.048Z,54.42
2022-10-11T11:03:02.844Z,56.57
2022-10-11T11:05:41.483Z,56.25
2022-10-11T11:08:14.816Z,56.04
2022-10-11T11:10:47.647Z,56.62
2022-10-11T11:13:22.345Z,55.63
2022-10-11T11:15:55.756Z,55.73
2022-10-11T11:18:28.950Z,55.37
2022-10-11T11:21:11.413Z,56.01
2022-10-11T11:23:43.928Z,55.91
2022-10-11T11:26:20.052Z,55.10
2022-10-11T11:28:59.799Z,55.02
2022-10-11T11:31:42.811Z,55.88
2022-10-11T11:34:19.561Z,54.77
2022-10-11T11:36:58.507Z,54.88
2022-10-11T11:39:29.535Z,53.89
2022-10-11T11:42:01.339Z,53.79
2022-10-11T11:44:31.700Z,53.28
2022-10-11T11:47:03.219Z,53.08
2022-10-11T11:49:34.461Z,52.97
2022-10-11T11:52:02.740Z,53.22
2022-10-11T11:54:44.330Z,52.46
2022-10-11T11:58:06.960Z,52.51
2022-10-11T12:00:41.776Z,52.49
2022-10-11T12:03:13.313Z,52.03
2022-10-11T12:06:23.017Z,51.69
2022-10-11T12:08:59.566Z,51.04
2022-10-11T12:11:34.561Z,48.83
2022-10-11T12:14:29.435Z,48.81
2022-10-11T12:17:30.227Z,48.73
2022-10-11T12:20:20.917Z,47.95
2022-10-11T12:22:56.296Z,48.23
2022-10-11T12:26:04.716Z,46.23
2022-10-11T12:29:15.043Z,45.56
2022-10-11T12:31:46.012Z,45.98
2022-10-11T12:34:34.381Z,45.88
2022-10-11T12:40:37.930Z,43.86
2022-10-11T12:47:18.057Z,42.56
2022-10-11T12:50:02.775Z,41.25
2022-10-11T12:53:20.544Z,40.84
2022-10-11T12:55:57.899Z,41.08
2022-10-11T12:58:46.886Z,42.92
2022-10-11T13:01:22.033Z,42.17
2022-10-11T13:03:59.883Z,41.54
2022-10-11T13:06:29.064Z,41.07
2022-10-11T13:09:03.937Z,41.97
2022-10-11T13:11:35.542Z,41.79
2022-10-11T13:14:08.741Z,41.19
2022-10-11T13:16:58.223Z,42.31
2022-10-11T13:19:25.035Z,43.32
2022-10-11T13:21:55.363Z,43.27
2022-10-11T13:24:23.929Z,43.65
2022-10-11T13:30:28.737Z,42.08
2022-10-11T13:32:56.060Z,43.14
2022-10-11T13:35:29.507Z,43.00
2022-10-11T13:37:59.413Z,41.73
2022-10-11T13:43:54.557Z,40.77
2022-10-11T13:46:24.529Z,40.82
2022-10-11T13:49:02.991Z,40.88
2022-10-11T13:51:33.224Z,39.27
2022-10-11T13:54:02.459Z,40.55
2022-10-11T13:56:31.904Z,40.76
2022-10-11T13:59:01.038Z,40.82
2022-10-11T14:01:35.720Z,41.16
2022-10-11T14:04:05.032Z,40.81
2022-10-11T14:06:47.662Z,42.00
2022-10-11T14:09:21.529Z,43.11
2022-10-11T14:11:48.515Z,43.37
2022-10-11T14:14:47.530Z,44.29
2022-10-11T14:17:16.971Z,44.79
2022-10-11T14:19:45.019Z,44.57
2022-10-11T14:22:16.022Z,45.72
2022-10-11T14:24:42.827Z,44.97
2022-10-11T14:27:16.404Z,44.49
2022-10-11T14:29:48.145Z,43.30
2022-10-11T14:32:29.585Z,42.30
2022-10-11T14:34:56.797Z,41.51
2022-10-11T14:37:24.043Z,42.11
2022-10-11T14:39:50.823Z,41.64
2022-10-11T14:42:18.180Z,41.82
2022-10-11T14:44:44.673Z,41.76
2022-10-11T14:47:14.674Z,41.00
2022-10-11T14:49:44.072Z,42.33
2022-10-11T14:52:12.429Z,41.71
2022-10-11T14:54:39.705Z,41.42
2022-10-11T14:57:06.375Z,41.16
2022-10-11T14:59:35.122Z,41.57
2022-10-11T15:02:03.568Z,41.49
2022-10-11T15:04:30.220Z,41.42
2022-10-11T15:06:59.596Z,41.73
2022-10-11T15:09:26.114Z,41.46
2022-10-11T15:11:53.490Z,40.53
2022-10-11T15:14:21.154Z,40.09
2022-10-11T15:16:47.932Z,41.32
2022-10-11T15:19:16.163Z,40.46
2022-10-11T15:21:42.893Z,40.44
2022-10-11T15:24:11.098Z,41.70
2022-10-11T15:26:37.625Z,42.46
2022-10-11T15:29:04.183Z,42.53
2022-10-11T15:31:30.982Z,42.51
2022-10-11T15:33:57.766Z,42.22
2022-10-11T15:36:24.727Z,41.65
2022-10-11T15:38:51.593Z,41.21
2022-10-11T15:41:20.201Z,42.29
2022-10-11T15:43:48.603Z,42.07
2022-10-11T15:46:17.656Z,41.34
2022-10-11T15:48:48.349Z,41.57
2022-10-11T15:51:15.129Z,42.74
2022-10-11T15:53:41.749Z,42.41
2022-10-11T15:56:12.584Z,42.07
2022-10-11T15:58:41.436Z,42.93
2022-10-11T16:01:11.566Z,43.05
2022-10-11T16:03:38.135Z,43.23
2022-10-11T16:06:08.263Z,43.65
2022-10-11T16:08:40.088Z,44.51
2022-10-11T16:11:08.304Z,45.29
2022-10-11T16:17:00.231Z,45.26
2022-10-11T16:20:02.151Z,45.65
2022-10-11T16:22:29.755Z,45.71
2022-10-11T16:24:56.288Z,46.62
2022-10-11T16:27:22.952Z,46.61
2022-10-11T16:29:52.584Z,47.36
2022-10-11T16:32:38.470Z,47.89
2022-10-11T16:35:06.413Z,48.56
2022-10-11T16:37:33.916Z,48.66
2022-10-11T16:40:00.954Z,48.68
2022-10-11T16:42:27.562Z,49.27
2022-10-11T16:44:54.323Z,48.62
2022-10-11T16:47:23.959Z,49.28
2022-10-11T16:49:52.049Z,49.20
2022-10-11T16:52:18.801Z,48.67
2022-10-11T16:55:00.148Z,49.19
2022-10-11T16:57:32.927Z,49.58
2022-10-11T17:00:09.806Z,49.14
2022-10-11T17:02:51.259Z,49.13
2022-10-11T17:08:09.977Z,49.33
2022-10-11T17:10:36.533Z,50.16
2022-10-11T17:13:12.862Z,50.23
2022-10-11T17:15:39.780Z,50.23
2022-10-11T17:18:06.523Z,50.37
2022-10-11T17:20:34.631Z,50.51
2022-10-11T17:23:01.161Z,50.26
2022-10-11T17:25:28.874Z,50.27
2022-10-11T17:27:55.747Z,50.12
2022-10-11T17:30:22.267Z,49.76
2022-10-11T17:32:56.048Z,49.78
2022-10-11T17:35:31.221Z,49.90
2022-10-11T17:38:46.913Z,49.80
2022-10-11T17:41:22.230Z,49.91
2022-10-11T17:43:48.878Z,49.64
2022-10-11T17:46:17.337Z,50.08
2022-10-11T17:48:43.823Z,49.92
2022-10-11T17:51:13.542Z,50.02
2022-10-11T17:53:42.054Z,50.14
2022-10-11T17:56:10.803Z,49.88
2022-10-11T17:58:38.402Z,50.01
2022-10-11T18:01:07.370Z,50.07
2022-10-11T18:03:34.926Z,49.89
2022-10-11T18:06:02.658Z,49.92
2022-10-11T18:08:29.124Z,49.59
2022-10-11T18:10:57.114Z,49.71
2022-10-11T18:13:23.573Z,49.77
2022-10-11T18:15:53.504Z,49.92
2022-10-11T18:18:20.352Z,50.17
2022-10-11T18:20:47.516Z,50.76
2022-10-11T18:23:14.205Z,50.70
2022-10-11T18:25:41.386Z,51.75
2022-10-11T18:28:09.735Z,52.05
2022-10-11T18:30:52.848Z,51.71
2022-10-11T18:33:19.416Z,51.12
2022-10-11T18:35:45.886Z,51.76
2022-10-11T18:38:12.381Z,51.86
2022-10-11T18:40:44.761Z,51.72
2022-10-11T18:43:14.830Z,51.98
2022-10-11T18:45:41.379Z,52.77
2022-10-11T18:48:08.061Z,52.23
2022-10-11T18:50:34.656Z,52.34
2022-10-11T18:53:01.653Z,52.19
2022-10-11T18:58:26.976Z,52.25
2022-10-11T19:00:53.493Z,52.59
2022-10-11T19:03:22.873Z,52.71
2022-10-11T19:05:49.543Z,53.47
2022-10-11T19:08:16.060Z,53.15
2022-10-11T19:10:42.771Z,53.58
2022-10-11T19:13:09.426Z,53.41
2022-10-11T19:15:37.304Z,53.41
2022-10-11T19:18:03.932Z,53.10
2022-10-11T19:20:31.145Z,53.20
2022-10-11T19:22:57.708Z,52.91
2022-10-11T19:25:24.277Z,52.94
2022-10-11T19:27:50.807Z,52.95
2022-10-11T19:30:21.334Z,52.58
2022-10-11T19:32:50.000Z,52.80
2022-10-11T19:35:19.930Z,53.17
2022-10-11T19:37:46.653Z,53.00
2022-10-11T19:40:13.602Z,52.71
2022-10-11T19:42:40.112Z,53.47
2022-10-11T19:45:09.391Z,53.51
2022-10-11T19:47:35.982Z,53.38
2022-10-11T19:50:04.691Z,54.07
2022-10-11T19:52:31.453Z,54.09
2022-10-11T19:54:58.236Z,54.26
2022-10-11T19:57:24.945Z,53.95
2022-10-11T19:59:51.551Z,54.23
2022-10-11T20:02:18.056Z,54.26
2022-10-11T20:04:52.330Z,54.56
2022-10-11T20:07:20.780Z,54.62
2022-10-11T20:09:47.430Z,54.77
2022-10-11T20:12:29.217Z,55.00
2022-10-11T20:14:56.133Z,55.26
2022-10-11T20:17:22.653Z,54.75
2022-10-11T20:19:49.152Z,54.77
2022-10-11T20:22:15.645Z,54.86
2022-10-11T20:25:13.629Z,55.91
2022-10-11T20:27:40.139Z,55.62
2022-10-11T20:30:07.242Z,55.57
2022-10-11T20:32:33.765Z,55.65
2022-10-11T20:35:00.292Z,56.17
2022-10-11T20:37:26.789Z,56.07
2022-10-11T20:39:53.323Z,56.55
2022-10-11T20:42:21.290Z,55.60
2022-10-11T20:44:47.907Z,55.94
2022-10-11T20:47:14.822Z,56.16
2022-10-11T20:49:41.550Z,56.28
2022-10-11T20:52:08.309Z,56.66
2022-10-11T20:54:34.817Z,56.40
2022-10-11T20:57:28.861Z,56.63
2022-10-11T20:59:55.383Z,56.35
2022-10-11T21:02:21.920Z,56.47
2022-10-11T21:04:48.373Z,56.38
2022-10-11T21:07:14.854Z,56.57
2022-10-11T21:09:41.384Z,56.25
2022-10-11T21:12:07.980Z,56.39
2022-10-11T21:14:35.921Z,56.66
2022-10-11T21:17:02.451Z,56.57
2022-10-11T21:19:28.993Z,56.42
2022-10-11T21:21:56.406Z,56.55
2022-10-11T21:24:23.047Z,56.68
2022-10-11T21:26:49.603Z,56.90
2022-10-11T21:32:14.496Z,56.77
2022-10-11T21:34:41.175Z,57.07
2022-10-11T21:37:07.668Z,56.77
2022-10-11T21:39:34.148Z,56.68
2022-10-11T21:42:00.635Z,57.03
2022-10-11T21:44:27.168Z,56.89
2022-10-11T21:47:06.709Z,57.41
2022-10-11T21:49:35.649Z,57.63
2022-10-11T21:52:02.454Z,57.18
2022-10-11T21:54:29.113Z,57.18
2022-10-11T21:56:55.633Z,56.79
2022-10-11T21:59:22.146Z,56.84
2022-10-11T22:01:48.707Z,56.90
2022-10-11T22:04:15.351Z,56.85
2022-10-11T22:06:43.271Z,56.59
2022-10-11T22:09:10.041Z,57.01
2022-10-11T22:11:37.369Z,56.92
2022-10-11T22:14:04.382Z,56.79
2022-10-11T22:16:33.043Z,57.33
2022-10-11T22:18:59.656Z,56.81
2022-10-11T22:21:26.535Z,56.71
2022-10-11T22:23:54.865Z,56.51
2022-10-11T22:26:24.340Z,56.63
2022-10-11T22:28:51.281Z,57.18
2022-10-11T22:31:20.282Z,56.98
2022-10-11T22:33:48.132Z,56.93
2022-10-11T22:36:15.005Z,56.89
2022-10-11T22:38:43.200Z,57.04
2022-10-11T22:41:47.587Z,56.94
2022-10-11T22:44:14.508Z,56.83
2022-10-11T22:46:41.074Z,56.93
2022-10-11T22:49:07.584Z,56.90
2022-10-11T22:51:43.205Z,56.89
2022-10-11T22:54:10.764Z,56.90
2022-10-11T22:56:38.609Z,56.92
2022-10-11T22:59:05.129Z,57.08
2022-10-11T23:01:31.863Z,56.81
2022-10-11T23:03:58.422Z,56.84
2022-10-11T23:06:25.086Z,57.35
2022-10-11T23:08:51.582Z,57.20
2022-10-11T23:11:53.879Z,57.21
2022-10-11T23:14:59.035Z,57.36
2022-10-11T23:17:25.544Z,57.66
2022-10-11T23:20:42.394Z,57.63
2022-10-11T23:23:07.314Z,57.54
2022-10-11T23:25:33.839Z,57.90
2022-10-11T23:28:00.405Z,58.72
2022-10-11T23:30:28.838Z,58.40
2022-10-11T23:32:55.339Z,58.62
2022-10-11T23:35:21.869Z,58.55
2022-10-11T23:37:48.394Z,59.18
2022-10-11T23:40:15.167Z,58.74
2022-10-11T23:42:41.696Z,58.70
2022-10-11T23:45:09.251Z,59.03
2022-10-11T23:47:37.630Z,59.28
2022-10-11T23:50:05.372Z,59.20
2022-10-11T23:52:31.906Z,59.49
2022-10-11T23:55:11.408Z,59.32
2022-10-11T23:57:38.264Z,59.51
